Time;durP1;ratioP1;P1;durP2;ratioP2;P2;SDS_P1;SDS_P2;PMS_P1;PMS_P2;Temp;Humidity;BMP_temperature;BMP_pressure;BME280_temperature;BME280_humidity;BME280_pressure;Samples;Min_cycle;Max_cycle;Signal;HPM_P1;HPM_P2
2023/09/25 00:00:31;;;;;;;12.23;5.25;;;19.90;99.90;;;;;;4858440;29;20125;-82
2023/09/25 00:02:59;;;;;;;9.15;5.18;;;20.10;99.90;;;;;;4858169;29;20054;-82
2023/09/25 00:05:28;;;;;;;8.18;4.90;;;19.90;99.90;;;;;;4856123;29;20514;-84
2023/09/25 00:07:57;;;;;;;10.95;5.57;;;19.70;99.90;;;;;;4869979;29;20037;-84
2023/09/25 00:10:25;;;;;;;8.80;5.05;;;19.70;99.90;;;;;;4872001;29;20073;-83
2023/09/25 00:12:52;;;;;;;8.48;4.55;;;19.90;99.90;;;;;;4859889;29;20041;-82
2023/09/25 00:15:20;;;;;;;8.20;4.82;;;19.90;99.90;;;;;;4860869;29;20052;-83
2023/09/25 00:17:48;;;;;;;10.13;5.57;;;20.20;99.90;;;;;;4859827;29;20033;-83
2023/09/25 00:20:21;;;;;;;12.48;6.30;;;20.30;99.90;;;;;;4870560;29;20056;-83
2023/09/25 00:22:50;;;;;;;13.80;6.38;;;20.30;99.90;;;;;;4859673;29;20037;-86
2023/09/25 00:25:20;;;;;;;9.45;5.43;;;20.30;99.90;;;;;;4870721;29;20042;-85
2023/09/25 00:27:47;;;;;;;;;;;20.20;99.90;;;;;;4872331;29;20133;-85
2023/09/25 00:30:15;;;;;;;9.70;5.43;;;19.70;99.90;;;;;;4873196;29;19924;-82
2023/09/25 00:32:42;;;;;;;11.45;5.47;;;19.40;99.90;;;;;;4872746;29;20065;-83
2023/09/25 00:35:10;;;;;;;9.32;5.47;;;19.30;99.90;;;;;;4872099;29;20042;-82
2023/09/25 00:37:55;;;;;;;10.77;6.25;;;19.30;99.90;;;;;;4871668;29;20034;-83
2023/09/25 00:40:24;;;;;;;10.30;6.18;;;19.40;99.90;;;;;;4870722;29;20070;-85
2023/09/25 00:43:13;;;;;;;9.35;6.28;;;19.40;99.90;;;;;;4860823;29;20032;-80
2023/09/25 00:45:42;;;;;;;9.57;6.10;;;19.40;99.90;;;;;;4861318;29;20057;-85
2023/09/25 00:48:26;;;;;;;8.98;6.45;;;19.10;99.90;;;;;;4875506;29;20050;-84
2023/09/25 00:50:57;;;;;;;9.85;5.57;;;19.00;99.90;;;;;;4869820;29;20041;-84
2023/09/25 00:53:26;;;;;;;;;;;18.90;99.90;;;;;;4868457;29;20038;-85
2023/09/25 00:55:57;;;;;;;11.00;6.75;;;19.00;99.90;;;;;;4869009;29;20014;-83
2023/09/25 00:58:24;;;;;;;;;;;19.10;99.90;;;;;;4862460;29;20060;-84
2023/09/25 01:00:53;;;;;;;9.45;6.55;;;19.10;99.90;;;;;;4855665;29;19947;-83
2023/09/25 01:03:21;;;;;;;10.32;6.78;;;19.10;99.90;;;;;;4872347;29;20052;-81
2023/09/25 01:05:50;;;;;;;9.10;6.80;;;19.00;99.90;;;;;;4862202;29;20116;-82
2023/09/25 01:08:17;;;;;;;12.00;6.60;;;19.00;99.90;;;;;;4870804;29;20045;-83
2023/09/25 01:10:46;;;;;;;9.98;6.55;;;19.10;99.90;;;;;;4853658;29;20052;-83
2023/09/25 01:13:15;;;;;;;10.52;6.47;;;19.20;99.90;;;;;;4871127;29;20045;-86
2023/09/25 01:15:42;;;;;;;10.63;6.40;;;19.20;99.90;;;;;;4854678;29;20055;-84
2023/09/25 01:18:09;;;;;;;16.90;7.35;;;19.30;99.90;;;;;;4871003;29;20038;-81
2023/09/25 01:20:37;;;;;;;8.65;5.53;;;19.50;99.90;;;;;;4856755;29;20053;-82
2023/09/25 01:23:05;;;;;;;13.23;6.10;;;19.50;99.90;;;;;;4869597;29;20536;-80
2023/09/25 01:25:32;;;;;;;9.52;6.55;;;19.50;99.90;;;;;;4869828;29;20058;-83
2023/09/25 01:27:59;;;;;;;10.73;5.85;;;19.50;99.90;;;;;;4856608;29;20444;-83
2023/09/25 01:30:29;;;;;;;9.60;6.32;;;19.30;99.90;;;;;;4852645;29;20049;-83
2023/09/25 01:32:57;;;;;;;9.55;6.60;;;19.30;99.90;;;;;;4854294;29;20041;-85
2023/09/25 01:35:26;;;;;;;12.52;7.03;;;19.50;99.90;;;;;;4862294;29;20057;-82
2023/09/25 01:37:58;;;;;;;12.85;6.88;;;19.50;99.90;;;;;;4856663;29;20049;-84
2023/09/25 01:40:43;;;;;;;12.38;7.50;;;19.50;99.90;;;;;;4869204;29;20030;-81
2023/09/25 01:43:10;;;;;;;11.48;7.07;;;19.80;99.90;;;;;;4871948;29;20056;-82
2023/09/25 01:45:37;;;;;;;12.50;7.43;;;19.80;99.90;;;;;;4854316;29;20041;-81
2023/09/25 01:48:05;;;;;;;12.05;7.13;;;19.90;99.90;;;;;;4869829;29;20045;-82
2023/09/25 01:50:32;;;;;;;12.93;6.55;;;19.80;99.90;;;;;;4853746;29;20120;-83
2023/09/25 01:53:01;;;;;;;13.18;7.22;;;19.50;99.90;;;;;;4869503;29;20049;-82
2023/09/25 01:55:31;;;;;;;11.95;6.85;;;19.60;99.90;;;;;;4867734;29;20069;-82
2023/09/25 01:57:59;;;;;;;10.13;6.70;;;19.90;99.90;;;;;;4864011;29;20064;-83
2023/09/25 02:00:26;;;;;;;13.93;7.85;;;19.60;99.90;;;;;;4869461;29;20052;-83
2023/09/25 02:02:54;;;;;;;15.35;7.10;;;19.40;99.90;;;;;;4869042;29;20451;-84
2023/09/25 02:05:21;;;;;;;14.43;6.78;;;19.40;99.90;;;;;;4871750;29;20046;-83
2023/09/25 02:07:49;;;;;;;11.70;7.32;;;19.30;99.90;;;;;;4864520;29;20056;-83
2023/09/25 02:10:16;;;;;;;10.20;7.28;;;19.20;99.90;;;;;;4858521;29;20052;-84
2023/09/25 02:12:43;;;;;;;16.30;7.78;;;19.40;99.90;;;;;;4871534;29;20042;-86
2023/09/25 02:15:11;;;;;;;11.10;7.70;;;19.30;99.90;;;;;;4856814;29;20883;-87
2023/09/25 02:17:38;;;;;;;12.60;7.60;;;19.40;99.90;;;;;;4856408;29;20406;-86
2023/09/25 02:20:22;;;;;;;12.15;7.38;;;19.40;99.90;;;;;;4870638;29;20467;-83
2023/09/25 02:22:51;;;;;;;12.43;7.28;;;18.90;99.90;;;;;;4857516;29;20042;-83
2023/09/25 02:25:19;;;;;;;13.93;8.25;;;19.10;99.90;;;;;;4873256;29;20057;-87
2023/09/25 02:27:46;;;;;;;10.70;7.72;;;19.10;99.90;;;;;;4872409;29;20105;-85
2023/09/25 02:30:14;;;;;;;13.55;7.78;;;19.50;99.90;;;;;;4871747;29;20103;-84
2023/09/25 02:32:44;;;;;;;;;;;19.40;99.90;;;;;;4853732;29;20148;-83
2023/09/25 02:35:13;;;;;;;11.60;8.25;;;19.20;99.90;;;;;;4875440;29;19924;-83
2023/09/25 02:37:41;;;;;;;15.55;7.82;;;19.10;99.90;;;;;;4874292;29;20053;-82
2023/09/25 02:40:13;;;;;;;12.18;7.63;;;19.30;99.90;;;;;;4858936;29;20041;-82
2023/09/25 02:42:42;;;;;;;10.35;7.28;;;19.30;99.90;;;;;;4871994;29;20113;-82
2023/09/25 02:45:13;;;;;;;12.25;7.80;;;19.40;99.90;;;;;;4862801;29;20069;-82
2023/09/25 02:47:42;;;;;;;12.00;7.97;;;19.30;99.90;;;;;;4858046;29;20065;-81
2023/09/25 02:50:10;;;;;;;11.77;7.28;;;19.50;99.90;;;;;;4867169;29;20046;-82
2023/09/25 02:52:38;;;;;;;12.48;7.10;;;19.80;99.90;;;;;;4860909;29;20052;-83
2023/09/25 02:55:05;;;;;;;14.30;8.30;;;19.80;99.90;;;;;;4849431;29;20055;-82
2023/09/25 02:57:33;;;;;;;10.07;7.28;;;19.90;99.90;;;;;;4861269;29;20055;-86
2023/09/25 03:00:02;;;;;;;12.00;8.48;;;20.00;99.90;;;;;;4857389;29;20167;-82
2023/09/25 03:02:30;;;;;;;10.63;7.50;;;19.30;99.90;;;;;;4857120;29;20136;-83
2023/09/25 03:04:58;;;;;;;13.80;7.60;;;19.30;99.90;;;;;;4850302;29;20121;-84
2023/09/25 03:07:25;;;;;;;13.27;8.02;;;19.60;99.90;;;;;;4859227;29;20040;-84
2023/09/25 03:09:52;;;;;;;12.98;7.80;;;19.80;99.90;;;;;;4861270;29;20052;-85
2023/09/25 03:12:19;;;;;;;13.25;7.25;;;19.90;99.90;;;;;;4856734;29;20049;-85
2023/09/25 03:14:47;;;;;;;11.00;7.05;;;19.90;99.90;;;;;;4870766;29;20045;-85
2023/09/25 03:17:14;;;;;;;12.23;7.47;;;20.00;99.90;;;;;;4869711;29;20146;-83
2023/09/25 03:19:42;;;;;;;17.67;7.90;;;20.00;99.90;;;;;;4873761;29;20049;-80
2023/09/25 03:22:09;;;;;;;13.63;7.65;;;19.90;99.90;;;;;;4874605;29;20053;-81
2023/09/25 03:24:36;;;;;;;11.95;8.50;;;19.70;99.90;;;;;;4857027;29;20053;-81
2023/09/25 03:27:03;;;;;;;12.02;7.95;;;19.60;99.90;;;;;;4866418;29;20045;-80
2023/09/25 03:29:31;;;;;;;14.68;7.88;;;19.80;99.90;;;;;;4859014;29;20037;-80
2023/09/25 03:31:58;;;;;;;13.70;8.07;;;19.90;99.90;;;;;;4872003;29;20058;-81
2023/09/25 03:34:25;;;;;;;12.45;8.13;;;19.50;99.90;;;;;;4863762;29;20068;-80
2023/09/25 03:36:52;;;;;;;11.95;7.72;;;19.40;99.90;;;;;;4854577;29;20051;-82
2023/09/25 03:39:19;;;;;;;12.15;8.52;;;19.30;99.90;;;;;;4873083;29;20049;-81
2023/09/25 03:41:47;;;;;;;12.70;8.15;;;19.50;99.90;;;;;;4873885;29;20194;-80
2023/09/25 03:44:14;;;;;;;14.05;9.27;;;18.90;99.90;;;;;;4857450;29;20485;-80
2023/09/25 03:46:41;;;;;;;16.13;8.20;;;19.10;99.90;;;;;;4856042;29;20060;-82
2023/09/25 03:49:09;;;;;;;13.18;8.88;;;19.10;99.90;;;;;;4871386;29;20077;-80
2023/09/25 03:51:36;;;;;;;13.13;8.95;;;18.70;99.90;;;;;;4866566;29;20042;-81
2023/09/25 03:54:03;;;;;;;14.88;9.43;;;18.60;99.90;;;;;;4857375;29;20035;-80
2023/09/25 03:56:31;;;;;;;15.02;8.60;;;18.60;99.90;;;;;;4871439;29;20038;-78
2023/09/25 03:58:58;;;;;;;16.60;8.93;;;18.50;99.90;;;;;;4871151;29;20414;-83
2023/09/25 04:01:26;;;;;;;12.38;8.75;;;18.50;99.90;;;;;;4854813;29;20045;-82
2023/09/25 04:03:53;;;;;;;12.93;9.00;;;18.50;99.90;;;;;;4870159;29;20460;-81
2023/09/25 04:06:20;;;;;;;13.95;8.30;;;18.60;99.90;;;;;;4871842;29;20406;-82
2023/09/25 04:08:48;;;;;;;12.65;7.72;;;18.60;99.90;;;;;;4857327;29;20041;-82
2023/09/25 04:11:16;;;;;;;14.27;8.15;;;18.90;99.90;;;;;;4855068;29;20050;-82
2023/09/25 04:13:43;;;;;;;13.30;8.20;;;19.00;99.90;;;;;;4857982;29;20049;-80
2023/09/25 04:16:14;;;;;;;15.70;8.68;;;19.10;99.90;;;;;;4853244;29;20046;-80
2023/09/25 04:18:45;;;;;;;14.32;8.05;;;19.30;99.90;;;;;;4858836;29;20053;-81
2023/09/25 04:21:17;;;;;;;16.27;8.07;;;19.30;99.90;;;;;;4856478;29;20494;-80
2023/09/25 04:23:44;;;;;;;12.18;8.15;;;19.30;99.90;;;;;;4854169;29;20132;-82
2023/09/25 04:26:12;;;;;;;13.10;8.57;;;19.40;99.90;;;;;;4867530;29;20045;-80
2023/09/25 04:28:42;;;;;;;12.60;8.75;;;19.40;99.90;;;;;;4856059;29;20047;-81
2023/09/25 04:31:12;;;;;;;12.35;9.07;;;19.40;99.90;;;;;;4870958;29;20042;-84
2023/09/25 04:33:40;;;;;;;13.20;8.82;;;19.00;99.90;;;;;;4857422;29;20037;-85
2023/09/25 04:36:10;;;;;;;13.75;8.95;;;18.80;99.90;;;;;;4858994;29;20046;-84
2023/09/25 04:38:38;;;;;;;12.73;7.75;;;19.10;99.90;;;;;;4872473;29;20056;-84
2023/09/25 04:41:05;;;;;;;13.25;8.52;;;19.10;99.90;;;;;;4871401;29;20375;-86
2023/09/25 04:43:33;;;;;;;13.30;8.35;;;18.90;99.90;;;;;;4863679;29;20129;-86
2023/09/25 04:46:01;;;;;;;11.82;7.95;;;19.10;99.90;;;;;;4860585;29;20482;-84
2023/09/25 04:48:29;;;;;;;10.77;8.13;;;19.20;99.90;;;;;;4877750;29;20069;-83
2023/09/25 04:50:57;;;;;;;14.10;7.75;;;19.30;99.90;;;;;;4865310;29;20386;-82
2023/09/25 04:53:25;;;;;;;49.15;31.58;;;19.40;99.90;;;;;;4861088;29;20049;-79
2023/09/25 04:55:52;;;;;;;28.77;21.45;;;19.40;99.90;;;;;;4866058;29;20053;-80
2023/09/25 04:58:20;;;;;;;17.20;11.32;;;19.50;99.90;;;;;;4859076;29;20042;-77
2023/09/25 05:00:48;;;;;;;134.95;91.82;;;19.50;99.90;;;;;;4856480;29;20533;-78
2023/09/25 05:03:15;;;;;;;45.00;32.72;;;19.60;99.90;;;;;;4856052;29;20080;-79
2023/09/25 05:05:44;;;;;;;93.40;60.92;;;19.70;99.90;;;;;;4856297;29;20041;-78
2023/09/25 05:08:11;;;;;;;27.42;19.95;;;19.80;99.90;;;;;;4871739;29;20046;-78
2023/09/25 05:10:39;;;;;;;17.15;11.73;;;19.80;99.90;;;;;;4855953;29;20623;-74
2023/09/25 05:13:06;;;;;;;13.23;9.85;;;19.50;99.90;;;;;;4855672;29;20048;-81
2023/09/25 05:15:33;;;;;;;18.52;11.80;;;19.00;99.90;;;;;;4857918;29;20064;-81
2023/09/25 05:18:02;;;;;;;16.98;9.23;;;19.10;99.90;;;;;;4870886;29;20124;-82
2023/09/25 05:20:30;;;;;;;15.18;8.98;;;19.00;99.90;;;;;;4873473;29;20482;-84
2023/09/25 05:22:57;;;;;;;11.80;7.72;;;18.80;99.90;;;;;;4854705;29;20053;-82
2023/09/25 05:25:25;;;;;;;13.68;9.07;;;18.60;99.90;;;;;;4868779;29;20038;-80
2023/09/25 05:27:56;;;;;;;13.02;8.82;;;18.90;99.90;;;;;;4871826;29;20513;-80
2023/09/25 05:30:24;;;;;;;15.98;10.10;;;19.30;99.90;;;;;;4857595;29;20041;-81
2023/09/25 05:32:52;;;;;;;14.63;9.07;;;19.60;99.90;;;;;;4857675;29;20053;-81
2023/09/25 05:35:19;;;;;;;15.95;8.82;;;19.80;99.90;;;;;;4867623;29;20101;-81
2023/09/25 05:37:48;;;;;;;14.77;9.48;;;19.90;99.90;;;;;;4857750;29;20056;-80
2023/09/25 05:40:17;;;;;;;14.07;7.67;;;20.10;99.90;;;;;;4870314;29;20041;-82
2023/09/25 05:42:47;;;;;;;10.98;7.63;;;20.10;99.90;;;;;;4852208;29;20073;-81
2023/09/25 05:45:15;;;;;;;11.52;6.72;;;20.10;99.90;;;;;;4850824;29;20045;-80
2023/09/25 05:47:44;;;;;;;10.98;6.20;;;20.30;99.90;;;;;;4854440;29;20054;-85
2023/09/25 05:50:12;;;;;;;10.95;6.28;;;20.40;99.90;;;;;;4853601;29;20044;-83
2023/09/25 05:52:40;;;;;;;14.10;6.97;;;20.40;99.90;;;;;;4870960;29;20395;-85
2023/09/25 05:55:08;;;;;;;11.40;6.20;;;20.50;99.90;;;;;;4853636;29;20048;-80
2023/09/25 05:57:36;;;;;;;12.93;7.00;;;19.90;99.90;;;;;;4856773;29;20073;-82
2023/09/25 06:00:12;;;;;;;17.73;9.27;;;19.50;99.90;;;;;;4857295;29;20042;-84
2023/09/25 06:02:41;;;;;;;14.98;11.00;;;19.40;99.90;;;;;;4857515;29;20061;-78
2023/09/25 06:05:12;;;;;;;13.30;7.72;;;19.40;99.90;;;;;;4856816;29;20172;-83
2023/09/25 06:07:40;;;;;;;12.57;7.25;;;19.30;99.90;;;;;;4869180;29;20054;-80
2023/09/25 06:10:08;;;;;;;13.90;7.05;;;19.50;99.90;;;;;;4870443;29;20057;-80
2023/09/25 06:12:35;;;;;;;11.60;6.60;;;19.70;99.90;;;;;;4853972;29;20052;-83
2023/09/25 06:15:09;;;;;;;13.25;8.23;;;19.80;99.90;;;;;;4867989;29;20133;-81
2023/09/25 06:17:38;;;;;;;13.30;7.38;;;19.80;99.90;;;;;;4867879;29;20049;-84
2023/09/25 06:20:14;;;;;;;13.98;7.57;;;19.70;99.90;;;;;;4855368;29;20343;-80
2023/09/25 06:22:44;;;;;;;13.48;7.10;;;19.70;99.90;;;;;;4855294;29;20478;-82
2023/09/25 06:25:11;;;;;;;11.75;6.43;;;20.10;99.90;;;;;;4869480;29;20121;-83
2023/09/25 06:27:44;;;;;;;10.38;5.85;;;19.80;99.90;;;;;;4854044;29;20046;-82
2023/09/25 06:30:13;;;;;;;9.55;5.88;;;19.90;99.90;;;;;;4860996;29;20046;-82
2023/09/25 06:32:40;;;;;;;9.60;5.35;;;19.80;99.90;;;;;;4869545;29;20045;-83
2023/09/25 06:35:08;;;;;;;9.05;5.47;;;19.80;99.90;;;;;;4871174;29;20077;-82
2023/09/25 06:37:36;;;;;;;9.05;5.20;;;19.90;99.90;;;;;;4854456;29;20053;-82
2023/09/25 06:40:09;;;;;;;7.65;4.47;;;20.20;99.90;;;;;;4868273;29;20045;-81
2023/09/25 06:42:39;;;;;;;8.05;4.80;;;20.10;99.90;;;;;;4853511;29;20523;-82
2023/09/25 06:45:08;;;;;;;9.00;5.25;;;20.50;99.90;;;;;;4869231;29;20070;-83
2023/09/25 06:47:37;;;;;;;8.75;4.20;;;20.60;99.90;;;;;;4867352;29;20233;-82
2023/09/25 06:50:05;;;;;;;7.50;4.35;;;20.90;99.90;;;;;;4870433;29;20260;-83
2023/09/25 06:52:32;;;;;;;7.40;4.30;;;21.10;99.90;;;;;;4871205;29;20057;-82
2023/09/25 06:55:00;;;;;;;8.05;3.53;;;20.20;99.90;;;;;;4862361;29;20041;-79
2023/09/25 06:57:27;;;;;;;5.75;3.40;;;19.80;99.90;;;;;;4871362;29;20049;-83
2023/09/25 06:59:54;;;;;;;7.60;3.58;;;19.70;99.90;;;;;;4855842;29;20073;-83
2023/09/25 07:02:23;;;;;;;9.27;3.63;;;19.80;99.90;;;;;;4856730;29;20494;-82
2023/09/25 07:04:50;;;;;;;6.60;4.10;;;20.10;99.90;;;;;;4857279;29;20141;-82
2023/09/25 07:07:18;;;;;;;6.03;3.42;;;20.30;99.90;;;;;;4870710;29;20074;-80
2023/09/25 07:09:45;;;;;;;5.40;3.28;;;20.40;99.90;;;;;;4857292;29;20142;-86
2023/09/25 07:12:15;;;;;;;7.07;3.20;;;20.50;99.90;;;;;;4858484;29;20050;-87
2023/09/25 07:14:55;;;;;;;8.32;3.65;;;20.80;99.90;;;;;;4857772;29;20573;-80
2023/09/25 07:17:23;;;;;;;7.03;3.78;;;20.40;99.90;;;;;;4857257;29;20500;-81
2023/09/25 07:19:52;;;;;;;6.90;3.10;;;20.60;99.90;;;;;;4873651;29;20452;-81
2023/09/25 07:22:22;;;;;;;6.75;3.35;;;20.80;99.90;;;;;;4859523;29;20144;-79
2023/09/25 07:24:50;;;;;;;;;;;20.60;99.90;;;;;;4860233;29;20056;-82
2023/09/25 07:27:17;;;;;;;5.25;3.10;;;20.70;99.90;;;;;;4874269;29;19924;-84
2023/09/25 07:29:45;;;;;;;5.68;3.50;;;20.50;99.90;;;;;;4843301;29;20053;-81
2023/09/25 07:32:13;;;;;;;7.35;3.83;;;20.20;99.90;;;;;;4873912;29;20068;-82
2023/09/25 07:34:42;;;;;;;7.03;3.72;;;20.10;99.90;;;;;;4860080;29;20049;-84
2023/09/25 07:37:12;;;;;;;6.43;3.60;;;20.30;99.90;;;;;;4857718;29;20478;-83
2023/09/25 07:39:42;;;;;;;5.78;3.38;;;20.30;99.90;;;;;;4862435;29;20071;-85
2023/09/25 07:42:13;;;;;;;6.50;3.75;;;20.30;99.90;;;;;;4863864;29;20056;-81
2023/09/25 07:44:42;;;;;;;6.38;3.88;;;20.30;99.90;;;;;;4870814;29;20533;-79
2023/09/25 07:47:12;;;;;;;8.45;4.00;;;20.40;99.90;;;;;;4858176;29;20056;-80
2023/09/25 07:49:44;;;;;;;6.57;3.53;;;20.30;99.90;;;;;;4859723;29;20177;-80
2023/09/25 07:52:16;;;;;;;7.80;3.70;;;20.70;99.90;;;;;;4861824;29;20045;-81
2023/09/25 07:54:50;;;;;;;5.47;3.22;;;20.90;99.90;;;;;;4866512;29;20042;-80
2023/09/25 07:57:20;;;;;;;5.22;3.22;;;21.00;99.90;;;;;;4873164;29;20048;-80
2023/09/25 07:59:50;;;;;;;6.00;3.45;;;21.20;99.90;;;;;;4857615;29;20050;-83
2023/09/25 08:02:20;;;;;;;;;;;21.30;99.90;;;;;;4876820;29;20045;-82
2023/09/25 08:04:50;;;;;;;5.93;3.72;;;21.50;99.90;;;;;;4860758;29;20388;-88
2023/09/25 08:07:33;;;;;;;7.22;3.95;;;21.50;99.90;;;;;;4857274;29;20182;-85
2023/09/25 08:10:01;;;;;;;6.05;3.67;;;20.90;99.90;;;;;;4868528;29;20132;-80
2023/09/25 08:12:29;;;;;;;8.23;4.10;;;20.80;99.90;;;;;;4868620;29;20041;-81
2023/09/25 08:14:57;;;;;;;6.68;3.90;;;20.80;99.90;;;;;;4871993;29;20062;-81
2023/09/25 08:17:27;;;;;;;9.77;3.88;;;21.10;99.90;;;;;;4856624;29;20062;-81
2023/09/25 08:19:55;;;;;;;7.07;4.15;;;20.90;99.90;;;;;;4858587;29;20049;-80
2023/09/25 08:22:22;;;;;;;5.63;3.92;;;20.90;99.90;;;;;;4858741;29;20573;-81
2023/09/25 08:24:49;;;;;;;8.98;4.70;;;20.80;99.90;;;;;;4857033;29;20460;-83
2023/09/25 08:27:16;;;;;;;7.70;4.68;;;20.80;99.90;;;;;;4850858;29;20050;-80
2023/09/25 08:29:45;;;;;;;7.90;3.60;;;21.00;99.90;;;;;;4857982;29;20042;-82
2023/09/25 08:32:14;;;;;;;8.13;4.40;;;21.10;99.90;;;;;;4853085;29;20149;-78
2023/09/25 08:34:41;;;;;;;7.93;4.00;;;21.30;99.90;;;;;;4855560;29;20053;-80
2023/09/25 08:37:09;;;;;;;7.38;3.75;;;21.00;99.90;;;;;;4859338;29;20045;-81
2023/09/25 08:39:36;;;;;;;8.15;4.30;;;21.00;99.90;;;;;;4873057;29;20050;-84
2023/09/25 08:42:06;;;;;;;7.30;4.00;;;21.00;99.90;;;;;;4857268;29;20041;-79
2023/09/25 08:44:34;;;;;;;6.53;4.00;;;20.90;99.90;;;;;;4869724;29;20110;-88
2023/09/25 08:47:01;;;;;;;8.25;4.65;;;21.00;99.90;;;;;;4870407;29;20050;-84
2023/09/25 08:49:31;;;;;;;9.13;4.47;;;21.10;99.90;;;;;;4859605;29;20037;-83
2023/09/25 08:52:01;;;;;;;7.15;4.07;;;21.10;99.90;;;;;;4855353;29;20049;-82
2023/09/25 08:54:28;;;;;;;7.97;4.43;;;21.00;99.90;;;;;;4858079;29;20052;-82
2023/09/25 08:56:56;;;;;;;6.22;3.92;;;21.30;99.90;;;;;;4872948;29;20569;-83
2023/09/25 08:59:24;;;;;;;8.52;5.00;;;21.30;99.90;;;;;;4872897;29;20049;-80
2023/09/25 09:01:51;;;;;;;12.20;4.45;;;21.50;99.90;;;;;;4858704;29;20045;-80
2023/09/25 09:04:23;;;;;;;8.43;4.65;;;21.40;99.90;;;;;;4857983;29;20057;-81
2023/09/25 09:06:51;;;;;;;7.65;4.55;;;21.80;99.90;;;;;;4861002;29;20053;-78
2023/09/25 09:09:22;;;;;;;17.27;4.40;;;21.70;99.90;;;;;;4867601;29;20041;-77
2023/09/25 09:11:52;;;;;;;8.32;4.60;;;21.60;99.90;;;;;;4858421;29;20507;-79
2023/09/25 09:14:43;;;;;;;7.88;4.47;;;21.40;99.90;;;;;;4872863;29;20065;-82
2023/09/25 09:17:11;;;;;;;7.75;4.55;;;21.50;99.90;;;;;;4871759;29;20046;-79
2023/09/25 09:19:48;;;;;;;10.93;4.50;;;21.40;99.90;;;;;;4858966;29;20045;-77
2023/09/25 09:22:18;;;;;;;8.48;4.97;;;21.60;99.90;;;;;;4857000;29;20064;-80
2023/09/25 09:24:47;;;;;;;8.50;4.72;;;21.40;99.90;;;;;;4872833;29;20125;-80
2023/09/25 09:27:19;;;;;;;9.48;4.88;;;21.60;99.90;;;;;;4857878;29;20062;-81
2023/09/25 09:29:52;;;;;;;7.28;4.68;;;21.50;99.90;;;;;;4857722;29;20081;-80
2023/09/25 09:32:20;;;;;;;9.50;4.65;;;21.60;99.90;;;;;;4872121;29;20049;-80
2023/09/25 09:34:48;;;;;;;7.55;5.00;;;21.70;99.90;;;;;;4858105;29;20049;-82
2023/09/25 09:37:15;;;;;;;11.65;4.55;;;21.80;99.90;;;;;;4870694;29;20042;-81
2023/09/25 09:39:47;;;;;;;7.18;4.38;;;21.40;99.90;;;;;;4856269;29;20042;-79
2023/09/25 09:42:15;;;;;;;8.45;5.10;;;21.50;99.90;;;;;;4856685;29;20502;-83
2023/09/25 09:44:44;;;;;;;8.25;5.07;;;21.30;99.90;;;;;;4867567;29;20114;-82
2023/09/25 09:47:15;;;;;;;11.75;5.07;;;21.40;99.90;;;;;;4872010;29;20077;-80
2023/09/25 09:49:44;;;;;;;6.90;4.95;;;21.70;99.90;;;;;;4871446;29;20045;-82
2023/09/25 09:52:12;;;;;;;8.02;4.32;;;21.70;99.90;;;;;;4856908;29;20406;-80
2023/09/25 09:54:40;;;;;;;10.07;5.30;;;21.80;99.90;;;;;;4857488;29;20508;-81
2023/09/25 09:57:08;;;;;;;10.23;5.32;;;21.70;99.90;;;;;;4854281;29;20048;-82
2023/09/25 09:59:36;;;;;;;12.57;5.30;;;21.60;99.90;;;;;;4852376;29;20052;-81
2023/09/25 10:02:04;;;;;;;14.52;5.55;;;21.80;99.90;;;;;;4874484;29;20486;-77
2023/09/25 10:04:32;;;;;;;11.32;5.57;;;21.80;99.90;;;;;;4862626;29;20081;-76
2023/09/25 10:07:05;;;;;;;10.98;5.20;;;21.90;99.90;;;;;;4856684;29;20069;-76
2023/09/25 10:09:32;;;;;;;7.22;4.90;;;21.90;99.90;;;;;;4866724;29;20053;-77
2023/09/25 10:12:02;;;;;;;13.57;5.22;;;21.90;99.90;;;;;;4871157;29;20060;-78
2023/09/25 10:14:38;;;;;;;13.18;5.55;;;22.00;99.90;;;;;;4864306;29;20050;-79
2023/09/25 10:17:06;;;;;;;8.23;5.32;;;21.80;99.90;;;;;;4867999;29;20506;-78
2023/09/25 10:19:37;;;;;;;10.10;5.50;;;22.00;99.90;;;;;;4867860;29;20089;-78
2023/09/25 10:22:12;;;;;;;12.13;5.50;;;21.80;99.90;;;;;;4858517;29;20754;-75
2023/09/25 10:24:42;;;;;;;9.63;5.10;;;21.80;99.90;;;;;;4852205;29;20052;-76
2023/09/25 10:27:11;;;;;;;12.40;6.10;;;21.80;99.90;;;;;;4850228;29;20050;-78
2023/09/25 10:29:38;;;;;;;10.88;5.82;;;21.80;99.90;;;;;;4866601;29;20436;-78
2023/09/25 10:32:11;;;;;;;10.32;5.93;;;22.10;99.90;;;;;;4866513;29;20057;-77
2023/09/25 10:34:39;;;;;;;18.20;6.38;;;22.00;99.90;;;;;;4853963;29;20042;-78
2023/09/25 10:37:06;;;;;;;10.27;6.10;;;22.00;99.90;;;;;;4856495;29;20041;-81
2023/09/25 10:39:35;;;;;;;9.68;5.78;;;21.60;99.90;;;;;;4856829;29;20439;-84
2023/09/25 10:42:07;;;;;;;12.10;5.97;;;21.90;99.90;;;;;;4864102;29;20041;-82
2023/09/25 10:44:40;;;;;;;10.48;5.90;;;21.70;99.90;;;;;;4857526;29;20061;-82
2023/09/25 10:47:09;;;;;;;9.68;6.20;;;21.40;99.90;;;;;;4857066;29;20049;-81
2023/09/25 10:49:37;;;;;;;12.18;6.28;;;21.60;99.90;;;;;;4872002;29;20502;-82
2023/09/25 10:52:04;;;;;;;12.50;5.47;;;21.70;99.90;;;;;;4852884;29;20041;-82
2023/09/25 10:54:34;;;;;;;8.45;5.43;;;21.80;99.90;;;;;;4875868;29;20472;-87
2023/09/25 10:57:04;;;;;;;11.07;6.70;;;21.80;99.90;;;;;;4871926;29;20388;-83
2023/09/25 10:59:36;;;;;;;9.27;5.68;;;21.90;99.90;;;;;;4853355;29;20057;-82
2023/09/25 11:02:03;;;;;;;13.07;6.60;;;21.80;99.90;;;;;;4859110;29;20049;-84
2023/09/25 11:04:31;;;;;;;12.93;5.93;;;21.80;99.90;;;;;;4853621;29;20692;-83
2023/09/25 11:07:00;;;;;;;10.75;5.93;;;22.00;99.90;;;;;;4871672;29;20050;-81
2023/09/25 11:09:29;;;;;;;9.88;6.03;;;22.50;99.90;;;;;;4874475;29;20049;-86
2023/09/25 11:11:58;;;;;;;8.63;5.07;;;23.00;99.90;;;;;;4871827;29;20446;-82
2023/09/25 11:14:26;;;;;;;11.00;6.80;;;23.20;99.90;;;;;;4853382;29;20049;-84
2023/09/25 11:16:53;;;;;;;9.00;5.28;;;23.10;99.90;;;;;;4859672;29;20141;-84
2023/09/25 11:19:22;;;;;;;11.55;6.30;;;23.40;99.90;;;;;;4857555;29;20405;-81
2023/09/25 11:21:50;;;;;;;14.65;6.25;;;23.40;99.90;;;;;;4856807;29;20402;-82
2023/09/25 11:24:18;;;;;;;10.93;6.43;;;24.00;99.90;;;;;;4858148;29;20041;-83
2023/09/25 11:26:46;;;;;;;13.43;5.90;;;23.70;99.90;;;;;;4873319;29;20467;-83
2023/09/25 11:29:13;;;;;;;15.63;6.45;;;23.30;99.90;;;;;;4856072;29;20406;-81
2023/09/25 11:31:41;;;;;;;9.20;5.85;;;23.60;99.90;;;;;;4859274;29;20053;-82
2023/09/25 11:34:29;;;;;;;9.93;6.07;;;23.80;99.90;;;;;;4856056;29;20084;-84
2023/09/25 11:36:57;;;;;;;11.63;6.82;;;24.00;99.90;;;;;;4853755;29;20105;-81
2023/09/25 11:39:25;;;;;;;10.70;6.50;;;24.30;99.90;;;;;;4856645;29;20045;-81
2023/09/25 11:41:54;;;;;;;9.77;5.93;;;24.80;99.90;;;;;;4858885;29;20045;-84
2023/09/25 11:44:21;;;;;;;12.10;6.45;;;24.40;99.90;;;;;;4857193;29;20125;-82
2023/09/25 11:46:53;;;;;;;11.02;6.57;;;24.50;99.90;;;;;;4865752;29;20046;-82
2023/09/25 11:49:21;;;;;;;;;;;24.20;99.90;;;;;;4842449;29;20044;-85
2023/09/25 11:51:48;;;;;;;11.88;6.38;;;24.10;99.90;;;;;;4872477;29;20285;-83
2023/09/25 11:54:16;;;;;;;10.80;6.25;;;24.60;99.90;;;;;;4859351;29;20084;-82
2023/09/25 11:56:43;;;;;;;11.90;6.68;;;24.80;99.90;;;;;;4858202;29;20052;-82
2023/09/25 11:59:11;;;;;;;10.30;6.43;;;25.20;99.90;;;;;;4858778;29;20041;-84
2023/09/25 12:01:39;;;;;;;9.32;6.10;;;24.80;99.90;;;;;;4859153;29;20069;-84
2023/09/25 12:04:07;;;;;;;9.75;6.35;;;23.80;99.90;;;;;;4858542;29;20050;-81
2023/09/25 12:06:36;;;;;;;12.10;6.72;;;23.90;99.90;;;;;;4858561;29;20145;-85
2023/09/25 12:09:10;;;;;;;13.70;6.20;;;23.50;99.90;;;;;;4856511;29;20403;-85
2023/09/25 12:11:41;;;;;;;13.52;6.60;;;23.20;99.90;;;;;;4866627;29;20432;-82
2023/09/25 12:14:09;;;;;;;9.45;6.38;;;23.20;99.90;;;;;;4855364;29;20127;-83
2023/09/25 12:16:37;;;;;;;12.38;6.35;;;23.20;99.90;;;;;;4868618;29;20491;-84
2023/09/25 12:19:04;;;;;;;11.45;6.40;;;23.20;99.90;;;;;;4871107;29;20069;-84
2023/09/25 12:21:32;;;;;;;12.18;6.25;;;23.10;99.90;;;;;;4856332;29;20049;-82
2023/09/25 12:24:00;;;;;;;9.73;6.45;;;23.30;99.90;;;;;;4861501;29;20042;-85
2023/09/25 12:26:28;;;;;;;11.50;7.25;;;23.40;99.90;;;;;;4871096;29;20062;-84
2023/09/25 12:28:55;;;;;;;13.32;6.95;;;23.60;99.90;;;;;;4878989;29;20046;-83
2023/09/25 12:31:23;;;;;;;10.90;6.50;;;23.60;99.90;;;;;;4861141;29;20038;-82
2023/09/25 12:33:52;;;;;;;13.18;6.40;;;23.40;99.90;;;;;;4853547;29;20049;-83
2023/09/25 12:36:57;;;;;;;10.52;6.32;;;23.80;99.90;;;;;;4856395;29;20405;-83
2023/09/25 12:39:25;;;;;;;9.43;6.33;;;24.10;99.90;;;;;;4865419;29;20152;-84
2023/09/25 12:41:52;;;;;;;12.15;6.40;;;23.90;99.90;;;;;;4872741;29;20056;-82
2023/09/25 12:44:20;;;;;;;11.55;6.30;;;23.80;99.90;;;;;;4872897;29;20494;-83
2023/09/25 12:46:49;;;;;;;10.52;6.20;;;24.10;99.90;;;;;;4858519;29;20050;-88
2023/09/25 12:49:19;;;;;;;13.20;6.00;;;24.00;99.90;;;;;;4873581;29;20033;-81
2023/09/25 12:51:50;;;;;;;9.90;6.47;;;24.00;99.90;;;;;;4863012;29;20045;-83